Time;durP1;ratioP1;P1;durP2;ratioP2;P2;SDS_P1;SDS_P2;PMS_P1;PMS_P2;Temp;Humidity;BMP_temperature;BMP_pressure;BME280_temperature;BME280_humidity;BME280_pressure;Samples;Min_cycle;Max_cycle;Signal;HPM_P1;HPM_P2
2020/12/07 00:01:46;;;;;;;18.55;11.00;;;;;;;3.04;76.22;100430.19;1660809;85;26153;-77
2020/12/07 00:04:14;;;;;;;17.77;12.13;;;;;;;3.01;76.15;100432.30;1682390;84;25824;-78
2020/12/07 00:06:41;;;;;;;20.37;13.10;;;;;;;2.99;76.20;100427.13;1627451;84;26175;-77
2020/12/07 00:09:09;;;;;;;23.40;13.78;;;;;;;2.97;76.20;100417.69;1684201;84;25782;-77
2020/12/07 00:11:36;;;;;;;24.15;12.55;;;;;;;2.95;76.18;100435.00;1690571;83;26913;-77
2020/12/07 00:14:04;;;;;;;16.05;9.48;;;;;;;2.94;76.09;100421.92;1635910;84;25888;-77
2020/12/07 00:16:31;;;;;;;20.97;12.55;;;;;;;2.95;75.99;100424.94;1655271;84;25681;-77
2020/12/07 00:18:58;;;;;;;16.82;10.93;;;;;;;2.91;76.00;100418.23;1680366;84;25760;-77
2020/12/07 00:21:26;;;;;;;18.95;11.73;;;;;;;2.88;76.05;100418.05;1682572;83;25808;-77
2020/12/07 00:23:53;;;;;;;18.35;12.65;;;;;;;2.88;76.03;100435.25;1661455;84;27651;-77
2020/12/07 00:26:20;;;;;;;22.67;14.58;;;;;;;2.87;76.17;100432.72;1707471;83;25746;-78
2020/12/07 00:28:48;;;;;;;25.30;14.63;;;;;;;2.89;76.15;100430.77;1679953;84;25814;-77
2020/12/07 00:31:15;;;;;;;19.32;12.10;;;;;;;2.88;76.15;100419.38;1634364;84;25848;-76
2020/12/07 00:33:42;;;;;;;20.27;12.43;;;;;;;2.84;75.78;100420.64;1623874;86;25868;-77
2020/12/07 00:36:10;;;;;;;24.55;15.00;;;;;;;2.80;75.69;100418.41;1668492;85;27537;-77
2020/12/07 00:38:37;;;;;;;28.07;13.98;;;;;;;2.75;75.54;100418.83;1616544;85;26551;-77
2020/12/07 00:41:04;;;;;;;23.50;13.15;;;;;;;2.72;75.64;100416.45;1620911;85;26432;-77
2020/12/07 00:43:32;;;;;;;26.75;14.03;;;;;;;2.68;75.62;100430.94;1652366;85;26415;-77
2020/12/07 00:46:00;;;;;;;32.55;16.77;;;;;;;2.65;75.77;100420.63;1669864;85;26039;-77
2020/12/07 00:48:27;;;;;;;25.08;14.28;;;;;;;2.63;75.85;100404.08;1648413;85;28455;-77
2020/12/07 00:50:54;;;;;;;26.68;13.10;;;;;;;2.64;75.89;100412.37;1641168;85;25869;-77
2020/12/07 00:53:22;;;;;;;24.72;14.68;;;;;;;2.65;75.95;100415.34;1635267;85;25857;-77
2020/12/07 00:55:49;;;;;;;27.62;14.35;;;;;;;2.62;75.83;100417.45;1668721;85;25792;-78
2020/12/07 00:58:17;;;;;;;23.85;12.60;;;;;;;2.60;75.84;100415.43;1633316;85;25821;-77
2020/12/07 01:00:45;;;;;;;19.67;12.28;;;;;;;2.60;75.68;100412.78;1642445;85;27545;-77
2020/12/07 01:03:13;;;;;;;22.42;13.03;;;;;;;2.57;75.79;100407.28;1619482;86;25928;-77
2020/12/07 01:05:41;;;;;;;19.92;12.00;;;;;;;2.56;75.82;100408.28;1664861;85;25394;-77
2020/12/07 01:08:09;;;;;;;24.72;13.58;;;;;;;2.53;75.84;100404.58;1617292;85;26417;-77
2020/12/07 01:10:37;;;;;;;22.55;14.65;;;;;;;2.50;75.67;100390.81;1671655;83;25428;-77
2020/12/07 01:13:04;;;;;;;17.23;10.63;;;;;;;2.48;75.72;100380.88;1642250;85;27546;-77
2020/12/07 01:15:33;;;;;;;17.40;10.30;;;;;;;2.48;75.81;100378.23;1672112;85;25973;-77
2020/12/07 01:18:01;;;;;;;18.35;12.40;;;;;;;2.45;75.73;100366.60;1649383;85;25921;-77
2020/12/07 01:20:33;;;;;;;19.15;11.80;;;;;;;2.44;75.80;100369.72;1641619;85;25998;-77
2020/12/07 01:23:00;;;;;;;17.27;10.88;;;;;;;2.42;75.66;100365.58;1666490;85;27024;-77
2020/12/07 01:25:28;;;;;;;19.90;12.40;;;;;;;2.41;75.76;100354.64;1668533;85;27560;-78
2020/12/07 01:27:56;;;;;;;22.85;12.78;;;;;;;2.39;75.81;100354.80;1635773;85;25969;-77
2020/12/07 01:30:24;;;;;;;22.87;12.78;;;;;;;2.40;75.95;100355.60;1643125;85;25906;-77
2020/12/07 01:32:51;;;;;;;23.15;13.98;;;;;;;2.42;75.93;100355.00;1642874;85;25762;-78
2020/12/07 01:35:18;;;;;;;19.87;12.73;;;;;;;2.40;75.91;100345.87;1672640;85;25913;-77
2020/12/07 01:37:46;;;;;;;23.42;13.70;;;;;;;2.39;75.90;100355.27;1617109;84;27727;-77
2020/12/07 01:40:14;;;;;;;18.75;11.80;;;;;;;2.36;75.82;100355.06;1641510;85;25849;-77
2020/12/07 01:42:41;;;;;;;22.25;12.85;;;;;;;2.33;75.75;100361.97;1617061;86;25788;-77
2020/12/07 01:45:09;;;;;;;23.65;13.53;;;;;;;2.33;75.90;100364.61;1638196;86;26494;-77
2020/12/07 01:47:38;;;;;;;21.75;12.45;;;;;;;2.32;75.90;100364.25;1629615;85;25941;-77
2020/12/07 01:50:07;;;;;;;16.77;10.98;;;;;;;2.32;75.97;100361.12;1649636;85;27751;-77
2020/12/07 01:52:35;;;;;;;19.98;12.82;;;;;;;2.32;75.84;100356.32;1631421;85;26808;-77
2020/12/07 01:55:05;;;;;;;23.27;14.65;;;;;;;2.29;75.86;100356.59;1669890;85;25901;-77
2020/12/07 01:57:34;;;;;;;19.53;12.93;;;;;;;2.32;75.94;100365.57;1645910;85;26681;-77
2020/12/07 02:00:08;;;;;;;24.35;15.28;;;;;;;2.31;75.83;100367.38;1643039;85;26451;-77
2020/12/07 02:02:37;;;;;;;24.23;14.20;;;;;;;2.31;75.84;100377.10;1667620;85;27365;-77
2020/12/07 02:05:05;;;;;;;30.68;15.28;;;;;;;2.32;75.83;100370.86;1669167;85;26191;-77
2020/12/07 02:07:32;;;;;;;23.95;15.45;;;;;;;2.30;75.82;100363.55;1624271;86;26461;-77
2020/12/07 02:10:00;;;;;;;24.95;16.00;;;;;;;2.28;75.71;100357.58;1662737;84;26425;-77
2020/12/07 02:12:27;;;;;;;23.07;14.13;;;;;;;2.27;75.76;100373.07;1652516;85;25787;-77
2020/12/07 02:14:55;;;;;;;21.23;13.00;;;;;;;2.26;75.83;100369.63;1632077;85;27588;-77
2020/12/07 02:17:22;;;;;;;20.17;13.22;;;;;;;2.26;75.84;100360.38;1670172;85;25917;-77
2020/12/07 02:19:50;;;;;;;25.35;15.58;;;;;;;2.27;75.80;100365.14;1666232;85;25885;-77
2020/12/07 02:22:18;;;;;;;21.02;13.40;;;;;;;2.26;75.67;100376.70;1643319;85;25829;-77
2020/12/07 02:24:58;;;;;;;18.55;12.68;;;;;;;2.29;75.81;100353.47;1803056;79;25718;-77
2020/12/07 02:27:27;;;;;;;18.57;12.93;;;;;;;2.22;75.77;100362.91;1722876;81;26017;-77
2020/12/07 02:29:55;;;;;;;20.37;13.58;;;;;;;2.20;75.79;100354.80;1744417;81;27755;-77
2020/12/07 02:32:22;;;;;;;16.67;11.05;;;;;;;2.20;75.79;100356.94;1690524;81;25947;-77
2020/12/07 02:35:09;;;;;;;18.12;10.72;;;;;;;2.20;75.65;100356.13;1734836;81;26525;-77
2020/12/07 02:37:40;;;;;;;15.88;10.70;;;;;;;2.17;75.65;100358.55;1716329;81;25968;-77
2020/12/07 02:40:09;;;;;;;17.80;10.82;;;;;;;2.17;75.68;100359.88;1747934;81;25771;-77
2020/12/07 02:42:38;;;;;;;17.23;12.18;;;;;;;2.17;75.63;100365.16;1716103;81;27644;-77
2020/12/07 02:45:11;;;;;;;20.08;12.63;;;;;;;2.14;75.50;100364.58;1710260;81;25452;-77
2020/12/07 02:47:40;;;;;;;19.55;12.53;;;;;;;2.11;75.58;100363.08;1716164;81;26447;-77
2020/12/07 02:50:10;;;;;;;21.02;12.90;;;;;;;2.12;75.55;100363.41;1740335;81;26141;-77
2020/12/07 02:52:38;;;;;;;14.13;9.45;;;;;;;2.13;75.54;100374.34;1669254;84;26381;-77
2020/12/07 02:55:11;;;;;;;15.20;10.18;;;;;;;2.14;75.67;100373.35;1659437;84;26756;-77
2020/12/07 02:57:40;;;;;;;16.75;11.25;;;;;;;2.16;75.62;100363.98;1660824;84;26461;-77
2020/12/07 03:00:09;;;;;;;18.80;11.53;;;;;;;2.16;75.61;100352.91;1655697;84;25818;-77
2020/12/07 03:02:38;;;;;;;18.52;12.18;;;;;;;2.15;75.58;100363.14;1663428;84;25780;-77
2020/12/07 03:05:07;;;;;;;18.87;12.37;;;;;;;2.16;75.70;100368.77;1633304;84;26105;-77
2020/12/07 03:07:36;;;;;;;20.57;13.83;;;;;;;2.18;75.63;100362.04;1655420;84;28399;-77
2020/12/07 03:10:04;;;;;;;16.87;10.85;;;;;;;2.16;75.58;100353.42;1689291;84;25855;-77
2020/12/07 03:12:32;;;;;;;19.40;11.95;;;;;;;2.15;75.53;100361.83;1638806;84;25839;-77
2020/12/07 03:15:01;;;;;;;15.43;10.58;;;;;;;2.11;75.61;100340.62;1636444;84;25771;-77
2020/12/07 03:17:30;;;;;;;17.12;11.30;;;;;;;2.10;75.55;100344.22;1661969;84;25922;-77
2020/12/07 03:19:58;;;;;;;16.07;11.73;;;;;;;2.09;75.63;100361.06;1685060;84;27545;-77
2020/12/07 03:22:26;;;;;;;19.05;12.13;;;;;;;2.08;75.56;100351.45;1632329;84;25860;-77
2020/12/07 03:24:54;;;;;;;16.82;11.35;;;;;;;2.09;75.56;100361.55;1632042;84;25449;-77
2020/12/07 03:27:21;;;;;;;14.38;10.00;;;;;;;2.07;75.58;100363.49;1650777;84;25880;-77
2020/12/07 03:29:49;;;;;;;15.68;9.93;;;;;;;2.07;75.52;100363.49;1629535;84;25937;-77
2020/12/07 03:32:18;;;;;;;16.37;10.08;;;;;;;2.06;75.52;100361.80;1630108;84;28173;-77
2020/12/07 03:34:46;;;;;;;14.03;8.88;;;;;;;2.04;75.55;100359.79;1626538;85;25878;-77
2020/12/07 03:37:13;;;;;;;16.48;9.83;;;;;;;2.02;75.55;100359.09;1643298;85;25895;-77
2020/12/07 03:39:42;;;;;;;12.28;9.48;;;;;;;1.99;75.53;100358.87;1677266;85;26153;-77
2020/12/07 03:42:10;;;;;;;13.48;8.95;;;;;;;1.98;75.46;100361.19;1625672;85;26434;-77
2020/12/07 03:44:37;;;;;;;16.55;11.30;;;;;;;2.00;75.55;100355.76;1653101;84;27557;-77
2020/12/07 03:47:05;;;;;;;15.90;10.68;;;;;;;2.00;75.56;100356.60;1614854;86;26511;-77
2020/12/07 03:49:32;;;;;;;14.58;9.78;;;;;;;2.02;75.44;100353.81;1670177;85;25777;-77
2020/12/07 03:52:00;;;;;;;13.10;9.50;;;;;;;2.00;75.49;100346.03;1633815;84;26572;-77
2020/12/07 03:54:28;;;;;;;14.47;9.18;;;;;;;1.98;75.34;100353.74;1630051;85;26223;-77
2020/12/07 03:56:56;;;;;;;12.25;9.28;;;;;;;1.94;75.41;100350.55;1630894;83;27177;-77
2020/12/07 03:59:23;;;;;;;14.15;9.65;;;;;;;1.91;75.35;100357.90;1645793;85;25825;-77
2020/12/07 04:01:51;;;;;;;12.70;8.98;;;;;;;1.90;75.64;100359.73;1634643;84;25819;-77
2020/12/07 04:04:24;;;;;;;12.55;9.00;;;;;;;1.92;75.71;100370.98;1621371;85;26451;-76
2020/12/07 04:06:50;;;;;;;10.65;7.55;;;;;;;1.93;75.61;100359.44;1651300;84;25782;-77
2020/12/07 04:09:19;;;;;;;;;;;;;;;1.92;75.57;100364.39;1672520;85;28404;-77
2020/12/07 04:11:46;;;;;;;10.08;7.47;;;;;;;1.91;75.60;100375.91;1619013;85;25746;-77
2020/12/07 04:14:13;;;;;;;15.55;9.20;;;;;;;1.90;75.63;100368.13;1624083;85;25374;-77
2020/12/07 04:16:41;;;;;;;12.03;9.40;;;;;;;1.90;75.68;100360.21;1648044;85;25802;-77
2020/12/07 04:19:08;;;;;;;15.83;8.83;;;;;;;1.90;75.62;100361.05;1637020;84;25883;-77
2020/12/07 04:21:36;;;;;;;11.88;9.13;;;;;;;1.90;75.62;100359.73;1609358;86;27558;-77
2020/12/07 04:24:03;;;;;;;12.37;8.73;;;;;;;1.89;75.56;100351.92;1647310;85;26517;-77
2020/12/07 04:26:30;;;;;;;15.00;10.20;;;;;;;1.88;75.53;100364.28;1684293;83;26211;-77
2020/12/07 04:28:59;;;;;;;12.68;9.70;;;;;;;1.86;75.57;100367.55;1643229;83;25817;-77
2020/12/07 04:31:26;;;;;;;12.78;8.93;;;;;;;1.87;75.60;100363.11;1675896;84;25417;-77
2020/12/07 04:33:54;;;;;;;16.37;11.88;;;;;;;1.86;75.72;100360.14;1681624;83;27641;-77
2020/12/07 04:36:21;;;;;;;11.63;8.65;;;;;;;1.88;75.75;100356.88;1674381;83;25773;-77
2020/12/07 04:38:48;;;;;;;16.73;10.48;;;;;;;1.88;75.78;100357.69;1679789;83;25912;-77
2020/12/07 04:41:16;;;;;;;11.93;9.50;;;;;;;1.88;75.74;100359.00;1658704;84;25879;-77
2020/12/07 04:43:44;;;;;;;13.68;10.28;;;;;;;1.86;75.75;100366.23;1711454;83;26164;-77
2020/12/07 04:46:12;;;;;;;14.95;9.85;;;;;;;1.84;75.79;100357.61;1667407;83;27327;-77
2020/12/07 04:48:42;;;;;;;13.93;9.93;;;;;;;1.85;75.87;100355.81;1670408;83;25774;-77
2020/12/07 04:51:10;;;;;;;11.43;8.58;;;;;;;1.84;75.89;100361.58;1659794;83;25892;-77
2020/12/07 04:53:38;;;;;;;11.93;8.73;;;;;;;1.86;76.00;100367.55;1675073;84;25822;-77
2020/12/07 04:56:06;;;;;;;16.00;10.40;;;;;;;1.86;75.88;100365.42;1673330;83;25809;-77
2020/12/07 04:58:34;;;;;;;12.53;9.05;;;;;;;1.86;75.90;100360.14;1661618;83;27562;-77
2020/12/07 05:01:01;;;;;;;13.75;9.80;;;;;;;1.84;75.93;100345.73;1636528;83;25846;-77
2020/12/07 05:03:29;;;;;;;14.60;10.23;;;;;;;1.85;76.05;100343.93;1673248;83;25902;-77
2020/12/07 05:05:57;;;;;;;16.55;11.33;;;;;;;1.86;76.00;100358.31;1689405;83;25905;-77
2020/12/07 05:08:25;;;;;;;18.98;11.50;;;;;;;1.87;76.02;100347.27;1661450;83;25807;-77
2020/12/07 05:10:56;;;;;;;17.77;11.22;;;;;;;1.88;75.96;100346.31;1673283;83;27565;-77
2020/12/07 05:16:04;;;;;;;17.70;10.68;;;;;;;1.88;75.64;100344.98;1800101;77;25631;-77
2020/12/07 05:18:37;;;;;;;18.55;10.58;;;;;;;1.83;75.82;100345.87;1652219;84;25873;-77
2020/12/07 05:21:08;;;;;;;15.28;11.15;;;;;;;1.82;75.79;100335.79;1697378;82;27738;-77
2020/12/07 05:23:40;;;;;;;15.53;10.50;;;;;;;1.81;75.73;100343.38;1630737;85;25897;-77
2020/12/07 05:26:11;;;;;;;22.58;12.65;;;;;;;1.80;75.76;100341.70;1684021;83;25846;-77
2020/12/07 05:28:42;;;;;;;;;;;;;;;1.80;75.87;100346.14;1649860;83;25804;-77
2020/12/07 05:31:15;;;;;;;12.47;7.55;;;;;;;1.80;75.76;100342.17;1658392;83;26279;-77
2020/12/07 05:33:42;;;;;;;13.28;9.40;;;;;;;1.78;75.90;100341.00;1640444;83;28609;-77
2020/12/07 05:36:10;;;;;;;13.53;9.40;;;;;;;1.77;75.89;100347.27;1660442;85;26544;-77
2020/12/07 05:38:38;;;;;;;16.60;10.13;;;;;;;1.79;75.99;100333.92;1646753;85;25929;-77
2020/12/07 05:41:05;;;;;;;23.27;12.15;;;;;;;1.82;76.05;100333.66;1662765;83;25848;-77
2020/12/07 05:43:33;;;;;;;18.07;11.00;;;;;;;1.83;75.84;100326.06;1653640;83;26244;-77
2020/12/07 05:46:01;;;;;;;22.98;11.78;;;;;;;1.83;75.82;100330.03;1665464;83;27721;-77
2020/12/07 05:48:34;;;;;;;18.48;11.33;;;;;;;1.82;75.84;100321.78;1661478;83;25846;-77
2020/12/07 05:51:06;;;;;;;14.40;9.08;;;;;;;1.82;75.84;100323.09;1656147;85;25755;-76
2020/12/07 05:53:39;;;;;;;15.72;9.38;;;;;;;1.80;75.71;100312.65;1685510;83;26536;-77
2020/12/07 05:56:08;;;;;;;11.18;7.75;;;;;;;1.78;75.72;100319.03;1644645;83;25973;-77
2020/12/07 05:59:02;;;;;;;13.90;7.62;;;;;;;1.80;75.74;100323.69;1657197;83;27333;-77
2020/12/07 06:01:31;;;;;;;17.52;11.55;;;;;;;1.79;75.70;100309.68;1672603;84;26167;-77
2020/12/07 06:03:58;;;;;;;13.60;9.63;;;;;;;1.81;75.81;100325.37;1657872;83;25824;-77
2020/12/07 06:06:32;;;;;;;14.75;10.23;;;;;;;1.82;75.71;100334.47;1656270;85;26651;-77
2020/12/07 06:09:10;;;;;;;15.60;9.70;;;;;;;1.82;75.76;100334.98;1679318;83;26495;-77
2020/12/07 06:11:46;;;;;;;19.42;10.65;;;;;;;1.80;75.76;100332.45;1660420;83;28503;-77
2020/12/07 06:14:14;;;;;;;13.93;9.33;;;;;;;1.79;75.75;100353.25;1677655;83;26141;-77
2020/12/07 06:16:43;;;;;;;15.78;8.93;;;;;;;1.79;75.82;100341.36;1640761;85;25897;-77
2020/12/07 06:19:19;;;;;;;16.32;9.70;;;;;;;1.79;75.64;100327.32;1654203;85;25951;-77
2020/12/07 06:21:56;;;;;;;13.40;9.78;;;;;;;1.77;75.53;100347.27;1633484;85;26584;-78
2020/12/07 06:24:42;;;;;;;13.08;8.70;;;;;;;1.79;75.76;100343.16;1630342;85;27542;-77
2020/12/07 06:27:13;;;;;;;19.27;9.15;;;;;;;1.80;75.83;100335.09;1627140;85;26233;-77
2020/12/07 06:30:02;;;;;;;17.77;8.28;;;;;;;1.80;75.71;100331.61;1658321;85;25854;-78
2020/12/07 06:32:48;;;;;;;15.00;8.93;;;;;;;1.79;75.53;100348.44;1636866;85;25953;-77
2020/12/07 06:35:17;;;;;;;12.63;8.48;;;;;;;1.78;75.59;100348.08;1653647;84;26033;-77
2020/12/07 06:37:48;;;;;;;14.47;7.87;;;;;;;1.77;75.73;100335.39;1652993;84;28491;-77
2020/12/07 06:40:19;;;;;;;13.38;9.20;;;;;;;1.77;75.60;100342.47;1640759;85;26232;-77
2020/12/07 06:42:48;;;;;;;15.23;8.85;;;;;;;1.77;75.78;100345.95;1621892;84;26254;-77
2020/12/07 06:45:31;;;;;;;14.63;9.60;;;;;;;1.77;75.63;100348.59;1611615;84;26408;-77
2020/12/07 06:48:10;;;;;;;18.12;10.40;;;;;;;1.81;75.65;100354.42;1763332;79;25715;-77
2020/12/07 06:50:39;;;;;;;14.87;10.35;;;;;;;1.78;75.72;100348.08;1701544;81;25937;-79
2020/12/07 06:55:56;;;;;;;17.55;10.45;;;;;;;1.78;75.65;100356.00;1695227;82;25834;-77
2020/12/07 06:58:31;;;;;;;17.48;12.23;;;;;;;1.78;75.69;100362.13;1675383;82;26054;-77
2020/12/07 07:01:14;;;;;;;16.90;11.08;;;;;;;1.79;75.60;100349.77;1690041;81;25930;-77
2020/12/07 07:03:50;;;;;;;20.95;10.58;;;;;;;1.81;75.56;100346.02;1731252;80;25840;-77
2020/12/07 07:06:21;;;;;;;19.25;11.55;;;;;;;1.82;75.58;100341.07;1681940;82;27554;-77
2020/12/07 07:08:53;;;;;;;21.48;10.80;;;;;;;1.80;75.39;100340.38;1676210;82;26201;-77
2020/12/07 07:11:23;;;;;;;16.70;9.18;;;;;;;1.79;75.47;100349.28;1702512;80;25863;-77
2020/12/07 07:13:51;;;;;;;18.52;10.98;;;;;;;1.79;75.36;100334.77;1734970;82;26469;-77
2020/12/07 07:16:19;;;;;;;19.67;10.25;;;;;;;1.79;75.43;100355.89;1665059;82;26132;-77
2020/12/07 07:18:47;;;;;;;19.57;10.53;;;;;;;1.78;75.17;100352.04;1672933;82;27533;-77
2020/12/07 07:21:25;;;;;;;20.35;10.63;;;;;;;1.79;75.35;100365.61;1720160;82;26169;-77
2020/12/07 07:23:54;;;;;;;18.50;10.80;;;;;;;1.78;75.42;100357.32;1741747;80;25856;-77
2020/12/07 07:26:27;;;;;;;16.45;9.33;;;;;;;1.79;75.46;100368.25;1638988;84;25960;-77
2020/12/07 07:28:53;;;;;;;24.57;10.50;;;;;;;1.80;75.39;100359.34;1657006;84;25791;-77
2020/12/07 07:31:24;;;;;;;19.57;11.43;;;;;;;1.81;75.46;100357.06;1656859;84;27088;-77
2020/12/07 07:33:51;;;;;;;18.82;11.78;;;;;;;1.81;75.29;100363.19;1703273;82;25995;-77
2020/12/07 07:36:23;;;;;;;17.60;10.88;;;;;;;1.81;75.35;100368.47;1657422;82;26571;-77
2020/12/07 07:39:00;;;;;;;21.77;10.00;;;;;;;1.81;75.37;100372.42;1684982;82;25813;-77
2020/12/07 07:41:29;;;;;;;19.02;11.55;;;;;;;1.83;75.43;100367.84;1704091;82;26043;-77
2020/12/07 07:43:57;;;;;;;20.05;11.73;;;;;;;1.85;75.35;100368.54;1728188;82;27528;-77
2020/12/07 07:46:26;;;;;;;19.60;11.35;;;;;;;1.86;75.38;100370.19;1652057;82;26187;-77
2020/12/07 08:16:58;;;;;;;13.83;9.23;;;;;;;1.98;74.81;100376.20;1698679;81;26468;-78
2020/12/07 08:19:29;;;;;;;15.68;9.80;;;;;;;2.00;74.48;100365.00;1729858;81;26388;-78
2020/12/07 08:22:16;;;;;;;14.43;7.78;;;;;;;2.02;74.64;100374.95;1676583;81;28575;-80
2020/12/07 08:24:59;;;;;;;18.82;10.18;;;;;;;2.04;74.41;100372.52;1693915;81;25977;-78
2020/12/07 08:27:36;;;;;;;17.85;11.30;;;;;;;2.02;74.37;100366.55;1735189;81;26371;-80
2020/12/07 08:30:27;;;;;;;20.27;10.05;;;;;;;2.06;74.35;100357.84;1722421;81;25880;-79
2020/12/07 08:33:00;;;;;;;16.45;10.45;;;;;;;2.08;74.27;100358.06;1631087;85;26562;-78
2020/12/07 08:35:30;;;;;;;19.07;11.57;;;;;;;2.10;74.20;100352.15;1593462;85;28397;-78
2020/12/07 08:38:02;;;;;;;18.37;11.45;;;;;;;2.11;73.73;100359.59;1609822;85;26219;-78
2020/12/07 08:40:32;;;;;;;16.45;9.15;;;;;;;2.14;73.93;100376.47;1612165;88;25891;-78
2020/12/07 08:43:00;;;;;;;14.80;10.15;;;;;;;2.15;73.79;100358.34;1602836;87;25775;-77
2020/12/07 08:45:27;;;;;;;16.50;10.55;;;;;;;2.16;73.34;100363.48;1561796;88;26455;-78
2020/12/07 08:47:55;;;;;;;16.60;10.35;;;;;;;2.16;73.46;100368.77;1588684;86;28139;-78
2020/12/07 08:50:22;;;;;;;17.40;9.85;;;;;;;2.17;73.24;100357.72;1612307;87;25940;-78
2020/12/07 08:52:49;;;;;;;19.55;10.13;;;;;;;2.19;73.48;100359.73;1562198;88;25825;-78
2020/12/07 08:55:17;;;;;;;21.97;9.63;;;;;;;2.22;73.20;100370.03;1578193;88;26589;-78
2020/12/07 08:57:45;;;;;;;17.67;11.28;;;;;;;2.22;73.04;100365.55;1578900;88;25804;-78
2020/12/07 09:00:13;;;;;;;18.82;10.90;;;;;;;2.22;73.15;100364.75;1622089;87;28272;-78
2020/12/07 09:02:40;;;;;;;17.37;11.00;;;;;;;2.23;72.65;100360.63;1565806;87;25879;-78
2020/12/07 09:05:07;;;;;;;17.40;10.00;;;;;;;2.23;72.75;100364.59;1600544;87;25860;-78
2020/12/07 09:07:35;;;;;;;19.25;11.00;;;;;;;2.26;72.86;100364.81;1597855;88;25997;-78
2020/12/07 09:10:02;;;;;;;15.65;9.50;;;;;;;2.31;72.93;100364.73;1612565;88;25874;-78
2020/12/07 09:12:30;;;;;;;20.32;11.05;;;;;;;2.34;72.70;100375.03;1558386;88;28407;-78
2020/12/07 09:14:57;;;;;;;18.15;10.55;;;;;;;2.35;72.00;100373.23;1581330;87;25808;-78
2020/12/07 09:17:25;;;;;;;18.67;10.08;;;;;;;2.36;72.46;100381.49;1583354;87;25882;-78
2020/12/07 09:19:52;;;;;;;18.02;11.12;;;;;;;2.37;71.88;100379.21;1583429;88;25851;-77
2020/12/07 09:22:19;;;;;;;17.75;9.18;;;;;;;2.38;72.10;100376.90;1554182;88;25943;-78
2020/12/07 09:24:47;;;;;;;17.17;9.93;;;;;;;2.37;71.88;100382.34;1558703;88;28654;-78
2020/12/07 09:27:14;;;;;;;14.15;9.08;;;;;;;2.35;71.15;100377.20;1613390;87;26454;-78
2020/12/07 09:29:41;;;;;;;19.07;11.40;;;;;;;2.34;71.77;100376.36;1629211;87;25839;-78
2020/12/07 09:32:10;;;;;;;20.45;11.30;;;;;;;2.34;72.09;100382.97;1600171;87;25896;-78
2020/12/07 09:34:38;;;;;;;20.40;10.72;;;;;;;2.40;71.86;100386.00;1595818;87;25435;-78
2020/12/07 09:37:06;;;;;;;18.73;12.15;;;;;;;2.45;72.12;100370.56;1596923;87;27352;-78
2020/12/07 09:39:33;;;;;;;23.07;11.93;;;;;;;2.48;71.07;100372.94;1620562;87;25822;-78
2020/12/07 09:42:00;;;;;;;17.98;11.50;;;;;;;2.51;71.52;100365.55;1609368;88;25957;-78
2020/12/07 09:44:28;;;;;;;17.55;9.63;;;;;;;2.55;71.70;100367.41;1568310;88;26119;-78
2020/12/07 09:46:55;;;;;;;19.02;12.55;;;;;;;2.55;71.91;100374.03;1595023;87;25982;-78
2020/12/07 09:49:22;;;;;;;14.68;9.88;;;;;;;2.55;71.44;100372.22;1622553;87;28584;-78
2020/12/07 09:51:50;;;;;;;18.55;9.18;;;;;;;2.56;71.52;100362.48;1567907;87;26530;-78
2020/12/07 09:54:17;;;;;;;20.68;9.80;;;;;;;2.54;71.29;100365.77;1573045;88;25761;-77
2020/12/07 09:56:44;;;;;;;16.73;9.60;;;;;;;2.53;71.05;100364.92;1577243;87;26558;-78
2020/12/07 09:59:12;;;;;;;17.67;11.08;;;;;;;2.53;71.33;100370.20;1598227;88;26162;-78
2020/12/07 10:01:39;;;;;;;18.80;9.80;;;;;;;2.54;71.39;100371.89;1594224;87;27562;-78
2020/12/07 10:04:06;;;;;;;15.13;8.78;;;;;;;2.59;71.16;100372.28;1592567;87;26202;-78
2020/12/07 10:06:34;;;;;;;17.32;9.30;;;;;;;2.61;70.50;100370.84;1582759;88;26044;-77
2020/12/07 10:09:01;;;;;;;20.30;11.03;;;;;;;2.60;70.48;100379.25;1602540;88;26520;-78
2020/12/07 10:11:28;;;;;;;18.57;11.10;;;;;;;2.60;70.55;100379.25;1592368;87;25932;-78
2020/12/07 10:13:56;;;;;;;38.53;18.82;;;;;;;2.61;70.99;100384.88;1602717;87;28258;-78
2020/12/07 10:16:23;;;;;;;21.23;12.25;;;;;;;2.65;70.20;100378.84;1599322;87;25827;-78
2020/12/07 10:18:51;;;;;;;18.48;10.70;;;;;;;2.66;70.43;100380.48;1621036;87;25833;-78
2020/12/07 10:21:22;;;;;;;17.57;9.78;;;;;;;2.66;70.49;100389.27;1563301;87;25838;-78
2020/12/07 10:23:49;;;;;;;;;;;;;;;2.69;70.72;100385.02;1616853;87;25886;-78
2020/12/07 10:26:16;;;;;;;18.87;10.38;;;;;;;2.73;70.79;100390.38;1595159;87;28449;-78
2020/12/07 10:28:44;;;;;;;19.40;11.45;;;;;;;2.75;70.78;100381.81;1574842;88;25935;-78
2020/12/07 10:31:11;;;;;;;18.80;11.35;;;;;;;2.80;70.56;100375.58;1571054;87;25931;-78
2020/12/07 10:33:38;;;;;;;24.60;11.95;;;;;;;2.82;70.37;100374.14;1574788;90;26213;-78
2020/12/07 10:36:07;;;;;;;34.08;13.83;;;;;;;2.84;69.28;100380.96;1607889;87;25785;-78
2020/12/07 10:38:34;;;;;;;23.98;12.18;;;;;;;2.85;69.46;100376.00;1575377;87;28446;-78
2020/12/07 10:41:02;;;;;;;20.88;11.55;;;;;;;2.91;70.35;100373.26;1567751;90;25953;-78
2020/12/07 10:43:30;;;;;;;16.35;9.95;;;;;;;2.94;70.18;100362.41;1582707;87;25892;-78
2020/12/07 10:45:57;;;;;;;14.47;8.93;;;;;;;2.97;70.20;100367.42;1601971;88;25794;-78
2020/12/07 10:48:25;;;;;;;14.20;7.62;;;;;;;3.01;70.36;100360.38;1548240;90;26427;-78
2020/12/07 10:50:52;;;;;;;16.05;9.40;;;;;;;3.04;69.51;100353.94;1592004;88;27660;-78
2020/12/07 10:53:19;;;;;;;17.57;9.53;;;;;;;3.03;69.66;100349.16;1586107;88;26552;-78
2020/12/07 10:55:47;;;;;;;21.15;10.23;;;;;;;3.05;69.42;100347.20;1589974;88;25837;-78
2020/12/07 10:58:14;;;;;;;17.15;10.10;;;;;;;3.07;69.05;100360.27;1585630;87;25899;-78
2020/12/07 11:00:41;;;;;;;16.57;9.35;;;;;;;3.07;69.07;100357.62;1582854;88;25821;-78
2020/12/07 11:03:09;;;;;;;14.53;9.15;;;;;;;3.08;68.67;100357.47;1571711;87;27106;-78
2020/12/07 11:05:38;;;;;;;17.35;9.35;;;;;;;3.06;68.83;100362.08;1597429;88;26563;-78
2020/12/07 11:08:18;;;;;;;15.40;9.98;;;;;;;3.06;69.15;100357.27;1594548;87;25424;-78
2020/12/07 11:10:40;;;;;;;14.20;9.20;;;;;;;3.07;69.25;100357.62;1617253;87;26412;-78
2020/12/07 11:13:21;;;;;;;14.45;9.25;;;;;;;3.09;69.03;100358.31;1599686;87;25836;-78
2020/12/07 11:15:37;;;;;;;18.45;9.13;;;;;;;3.09;68.94;100351.22;1592651;87;27369;-78
2020/12/07 11:18:04;;;;;;;13.83;7.95;;;;;;;3.10;69.53;100349.41;1598607;87;26223;-82
2020/12/07 11:20:31;;;;;;;16.30;8.93;;;;;;;3.13;69.12;100352.59;1563794;88;25885;-79
2020/12/07 11:22:59;;;;;;;15.60;8.75;;;;;;;3.13;68.56;100347.30;1553052;90;28870;-79
2020/12/07 11:25:26;;;;;;;20.80;9.98;;;;;;;3.13;68.96;100348.63;1563497;90;25966;-79
2020/12/07 11:27:54;;;;;;;20.65;10.78;;;;;;;3.13;69.42;100349.10;1570415;88;27589;-79
2020/12/07 11:30:21;;;;;;;17.40;10.38;;;;;;;3.14;68.94;100340.20;1562385;89;25938;-78
2020/12/07 11:32:48;;;;;;;20.32;10.13;;;;;;;3.17;68.99;100342.53;1566606;90;25825;-79
2020/12/07 11:35:16;;;;;;;20.12;9.50;;;;;;;3.17;69.21;100341.22;1570553;89;26590;-78
2020/12/07 11:37:43;;;;;;;19.55;10.00;;;;;;;3.18;69.44;100339.41;1587951;88;25810;-78
2020/12/07 11:40:16;;;;;;;20.12;10.35;;;;;;;3.19;69.25;100343.73;1557661;88;29188;-79
2020/12/07 11:45:23;;;;;;;17.95;9.55;;;;;;;3.16;69.25;100337.40;1861746;75;25722;-77
2020/12/07 11:47:50;;;;;;;21.52;10.23;;;;;;;3.11;69.27;100335.19;1796402;76;25810;-78
2020/12/07 11:50:17;;;;;;;17.37;9.48;;;;;;;3.13;69.19;100337.20;1825837;76;27518;-78
2020/12/07 11:52:45;;;;;;;19.40;10.28;;;;;;;3.13;68.91;100338.52;1773225;77;25828;-78
2020/12/07 11:55:12;;;;;;;19.45;10.25;;;;;;;3.13;68.86;100336.72;1776922;77;25847;-78
2020/12/07 11:57:39;;;;;;;23.18;10.03;;;;;;;3.12;68.69;100324.45;1795513;77;25863;-78
2020/12/07 12:00:07;;;;;;;19.90;10.90;;;;;;;3.10;68.99;100333.53;1834239;77;26065;-78
2020/12/07 12:02:34;;;;;;;21.82;11.15;;;;;;;3.09;69.09;100340.63;1822379;77;28366;-78
2020/12/07 12:05:01;;;;;;;26.75;11.53;;;;;;;3.08;69.36;100340.76;1801954;77;25864;-78
2020/12/07 12:07:29;;;;;;;18.75;10.85;;;;;;;3.07;69.19;100353.66;1836527;77;25757;-77